sensor_id;sensor_type;location;lat;lon;timestamp;P1;durP1;ratioP1;P2;durP2;ratioP2
12127;SDS011;6127;57.702;11.904;2024-03-25T00:00:43;0.70;;;0.70;;
12127;SDS011;6127;57.702;11.904;2024-03-25T00:03:09;0.60;;;0.60;;
12127;SDS011;6127;57.702;11.904;2024-03-25T00:05:35;0.60;;;0.60;;
12127;SDS011;6127;57.702;11.904;2024-03-25T00:08:01;0.60;;;0.60;;
12127;SDS011;6127;57.702;11.904;2024-03-25T00:10:27;0.60;;;0.60;;
12127;SDS011;6127;57.702;11.904;2024-03-25T00:12:53;0.63;;;0.63;;
12127;SDS011;6127;57.702;11.904;2024-03-25T00:15:20;0.70;;;0.70;;
12127;SDS011;6127;57.702;11.904;2024-03-25T00:17:48;0.60;;;0.60;;
12127;SDS011;6127;57.702;11.904;2024-03-25T00:20:14;0.60;;;0.60;;
12127;SDS011;6127;57.702;11.904;2024-03-25T00:22:40;0.60;;;0.60;;
12127;SDS011;6127;57.702;11.904;2024-03-25T00:25:07;0.60;;;0.60;;
12127;SDS011;6127;57.702;11.904;2024-03-25T00:27:33;0.70;;;0.70;;
12127;SDS011;6127;57.702;11.904;2024-03-25T00:29:59;0.60;;;0.60;;
12127;SDS011;6127;57.702;11.904;2024-03-25T00:32:25;0.60;;;0.60;;
12127;SDS011;6127;57.702;11.904;2024-03-25T00:34:51;0.60;;;0.60;;
12127;SDS011;6127;57.702;11.904;2024-03-25T00:37:17;0.70;;;0.70;;
12127;SDS011;6127;57.702;11.904;2024-03-25T00:39:43;0.70;;;0.70;;
12127;SDS011;6127;57.702;11.904;2024-03-25T00:42:10;0.55;;;0.55;;
12127;SDS011;6127;57.702;11.904;2024-03-25T00:44:37;0.60;;;0.60;;
12127;SDS011;6127;57.702;11.904;2024-03-25T00:47:03;0.60;;;0.60;;
12127;SDS011;6127;57.702;11.904;2024-03-25T00:49:29;0.60;;;0.60;;
12127;SDS011;6127;57.702;11.904;2024-03-25T00:51:55;0.65;;;0.65;;
12127;SDS011;6127;57.702;11.904;2024-03-25T00:54:21;0.63;;;0.63;;
12127;SDS011;6127;57.702;11.904;2024-03-25T00:56:48;0.60;;;0.60;;
12127;SDS011;6127;57.702;11.904;2024-03-25T00:59:14;0.60;;;0.60;;
12127;SDS011;6127;57.702;11.904;2024-03-25T01:01:40;0.60;;;0.60;;
12127;SDS011;6127;57.702;11.904;2024-03-25T01:04:06;0.60;;;0.60;;
12127;SDS011;6127;57.702;11.904;2024-03-25T01:06:32;0.70;;;0.70;;
12127;SDS011;6127;57.702;11.904;2024-03-25T01:08:58;0.50;;;0.50;;
12127;SDS011;6127;57.702;11.904;2024-03-25T01:11:24;0.60;;;0.60;;
12127;SDS011;6127;57.702;11.904;2024-03-25T01:13:50;0.60;;;0.60;;
12127;SDS011;6127;57.702;11.904;2024-03-25T01:16:16;0.60;;;0.60;;
12127;SDS011;6127;57.702;11.904;2024-03-25T01:18:42;0.60;;;0.60;;
12127;SDS011;6127;57.702;11.904;2024-03-25T01:21:08;0.60;;;0.60;;
12127;SDS011;6127;57.702;11.904;2024-03-25T02:19:15;0.60;;;0.60;;
12127;SDS011;6127;57.702;11.904;2024-03-25T02:21:48;0.60;;;0.60;;
12127;SDS011;6127;57.702;11.904;2024-03-25T02:24:14;0.70;;;0.70;;
12127;SDS011;6127;57.702;11.904;2024-03-25T02:26:41;0.57;;;0.57;;
12127;SDS011;6127;57.702;11.904;2024-03-25T02:29:09;0.60;;;0.60;;
12127;SDS011;6127;57.702;11.904;2024-03-25T02:31:35;0.60;;;0.60;;
12127;SDS011;6127;57.702;11.904;2024-03-25T02:34:01;0.60;;;0.60;;
12127;SDS011;6127;57.702;11.904;2024-03-25T02:36:27;0.60;;;0.60;;
12127;SDS011;6127;57.702;11.904;2024-03-25T02:38:53;0.60;;;0.60;;
12127;SDS011;6127;57.702;11.904;2024-03-25T02:41:19;0.60;;;0.60;;
12127;SDS011;6127;57.702;11.904;2024-03-25T02:43:47;0.60;;;0.60;;
12127;SDS011;6127;57.702;11.904;2024-03-25T02:46:14;0.60;;;0.60;;
12127;SDS011;6127;57.702;11.904;2024-03-25T02:48:40;0.70;;;0.70;;
12127;SDS011;6127;57.702;11.904;2024-03-25T02:51:05;0.60;;;0.60;;
12127;SDS011;6127;57.702;11.904;2024-03-25T02:53:31;0.60;;;0.60;;
12127;SDS011;6127;57.702;11.904;2024-03-25T02:55:57;0.60;;;0.60;;
12127;SDS011;6127;57.702;11.904;2024-03-25T02:58:23;0.60;;;0.60;;
12127;SDS011;6127;57.702;11.904;2024-03-25T03:00:49;0.60;;;0.60;;
12127;SDS011;6127;57.702;11.904;2024-03-25T03:03:15;0.60;;;0.60;;
12127;SDS011;6127;57.702;11.904;2024-03-25T03:05:41;0.60;;;0.60;;
12127;SDS011;6127;57.702;11.904;2024-03-25T03:10:44;0.60;;;0.60;;
12127;SDS011;6127;57.702;11.904;2024-03-25T03:13:10;0.70;;;0.70;;
12127;SDS011;6127;57.702;11.904;2024-03-25T03:15:36;0.60;;;0.60;;
12127;SDS011;6127;57.702;11.904;2024-03-25T03:18:02;0.60;;;0.60;;
12127;SDS011;6127;57.702;11.904;2024-03-25T03:20:28;0.60;;;0.60;;
12127;SDS011;6127;57.702;11.904;2024-03-25T03:22:54;0.60;;;0.60;;
12127;SDS011;6127;57.702;11.904;2024-03-25T03:40:58;0.60;;;0.60;;
12127;SDS011;6127;57.702;11.904;2024-03-25T03:43:24;0.52;;;0.52;;
12127;SDS011;6127;57.702;11.904;2024-03-25T03:45:50;0.60;;;0.60;;
12127;SDS011;6127;57.702;11.904;2024-03-25T03:48:16;0.60;;;0.60;;
12127;SDS011;6127;57.702;11.904;2024-03-25T03:50:42;0.70;;;0.70;;
12127;SDS011;6127;57.702;11.904;2024-03-25T03:53:08;0.60;;;0.60;;
12127;SDS011;6127;57.702;11.904;2024-03-25T03:55:34;0.60;;;0.60;;
12127;SDS011;6127;57.702;11.904;2024-03-25T03:58:00;0.60;;;0.60;;
12127;SDS011;6127;57.702;11.904;2024-03-25T04:00:26;0.60;;;0.60;;
12127;SDS011;6127;57.702;11.904;2024-03-25T04:02:52;0.63;;;0.63;;
12127;SDS011;6127;57.702;11.904;2024-03-25T04:05:18;0.60;;;0.60;;
12127;SDS011;6127;57.702;11.904;2024-03-25T04:07:44;0.60;;;0.60;;
12127;SDS011;6127;57.702;11.904;2024-03-25T04:10:10;0.60;;;0.60;;
12127;SDS011;6127;57.702;11.904;2024-03-25T04:12:37;0.60;;;0.60;;
12127;SDS011;6127;57.702;11.904;2024-03-25T04:15:03;0.70;;;0.70;;
12127;SDS011;6127;57.702;11.904;2024-03-25T04:17:29;0.60;;;0.60;;
12127;SDS011;6127;57.702;11.904;2024-03-25T04:19:58;0.60;;;0.60;;
12127;SDS011;6127;57.702;11.904;2024-03-25T04:22:25;0.60;;;0.60;;
12127;SDS011;6127;57.702;11.904;2024-03-25T04:24:51;0.60;;;0.60;;
12127;SDS011;6127;57.702;11.904;2024-03-25T04:27:17;0.70;;;0.70;;
12127;SDS011;6127;57.702;11.904;2024-03-25T04:29:45;0.50;;;0.50;;
12127;SDS011;6127;57.702;11.904;2024-03-25T04:32:11;0.60;;;0.60;;
12127;SDS011;6127;57.702;11.904;2024-03-25T04:34:37;0.60;;;0.60;;
12127;SDS011;6127;57.702;11.904;2024-03-25T04:37:03;0.63;;;0.63;;
12127;SDS011;6127;57.702;11.904;2024-03-25T04:39:29;0.70;;;0.70;;
12127;SDS011;6127;57.702;11.904;2024-03-25T04:41:55;0.50;;;0.50;;
12127;SDS011;6127;57.702;11.904;2024-03-25T04:44:21;0.60;;;0.60;;
12127;SDS011;6127;57.702;11.904;2024-03-25T04:46:47;0.60;;;0.60;;
12127;SDS011;6127;57.702;11.904;2024-03-25T04:49:13;0.60;;;0.60;;
12127;SDS011;6127;57.702;11.904;2024-03-25T04:51:39;0.60;;;0.60;;
12127;SDS011;6127;57.702;11.904;2024-03-25T04:54:06;0.60;;;0.60;;
12127;SDS011;6127;57.702;11.904;2024-03-25T04:56:32;0.60;;;0.60;;
12127;SDS011;6127;57.702;11.904;2024-03-25T04:58:58;0.60;;;0.60;;
12127;SDS011;6127;57.702;11.904;2024-03-25T05:01:26;0.60;;;0.60;;
12127;SDS011;6127;57.702;11.904;2024-03-25T05:03:53;0.60;;;0.60;;
12127;SDS011;6127;57.702;11.904;2024-03-25T05:06:19;0.60;;;0.60;;
12127;SDS011;6127;57.702;11.904;2024-03-25T05:08:45;0.60;;;0.60;;
12127;SDS011;6127;57.702;11.904;2024-03-25T05:11:11;0.60;;;0.60;;
12127;SDS011;6127;57.702;11.904;2024-03-25T05:13:37;0.70;;;0.70;;
12127;SDS011;6127;57.702;11.904;2024-03-25T05:16:03;0.60;;;0.60;;
12127;SDS011;6127;57.702;11.904;2024-03-25T05:18:29;0.60;;;0.60;;
12127;SDS011;6127;57.702;11.904;2024-03-25T05:20:54;0.60;;;0.60;;
12127;SDS011;6127;57.702;11.904;2024-03-25T05:23:20;0.60;;;0.60;;
12127;SDS011;6127;57.702;11.904;2024-03-25T05:25:47;0.70;;;0.70;;
12127;SDS011;6127;57.702;11.904;2024-03-25T05:28:13;0.50;;;0.50;;
12127;SDS011;6127;57.702;11.904;2024-03-25T05:30:39;0.60;;;0.60;;
12127;SDS011;6127;57.702;11.904;2024-03-25T05:33:05;0.60;;;0.60;;
12127;SDS011;6127;57.702;11.904;2024-03-25T05:35:31;0.60;;;0.60;;
12127;SDS011;6127;57.702;11.904;2024-03-25T05:38:01;0.65;;;0.65;;
12127;SDS011;6127;57.702;11.904;2024-03-25T05:40:28;0.60;;;0.60;;
12127;SDS011;6127;57.702;11.904;2024-03-25T05:42:54;0.60;;;0.60;;
12127;SDS011;6127;57.702;11.904;2024-03-25T05:45:20;0.60;;;0.60;;
12127;SDS011;6127;57.702;11.904;2024-03-25T05:47:47;0.60;;;0.60;;
12127;SDS011;6127;57.702;11.904;2024-03-25T05:50:13;0.60;;;0.60;;
12127;SDS011;6127;57.702;11.904;2024-03-25T05:52:39;0.60;;;0.60;;
12127;SDS011;6127;57.702;11.904;2024-03-25T05:55:05;0.60;;;0.60;;
12127;SDS011;6127;57.702;11.904;2024-03-25T05:57:31;0.60;;;0.60;;
12127;SDS011;6127;57.702;11.904;2024-03-25T05:59:56;0.70;;;0.70;;
12127;SDS011;6127;57.702;11.904;2024-03-25T06:02:22;0.52;;;0.52;;
12127;SDS011;6127;57.702;11.904;2024-03-25T06:04:49;0.60;;;0.60;;
12127;SDS011;6127;57.702;11.904;2024-03-25T06:07:15;0.60;;;0.60;;
12127;SDS011;6127;57.702;11.904;2024-03-25T06:09:41;0.60;;;0.60;;
12127;SDS011;6127;57.702;11.904;2024-03-25T06:12:07;0.60;;;0.60;;
12127;SDS011;6127;57.702;11.904;2024-03-25T06:14:33;0.60;;;0.60;;
12127;SDS011;6127;57.702;11.904;2024-03-25T06:16:59;0.60;;;0.60;;
12127;SDS011;6127;57.702;11.904;2024-03-25T06:19:25;0.60;;;0.60;;
12127;SDS011;6127;57.702;11.904;2024-03-25T06:21:51;0.60;;;0.60;;
12127;SDS011;6127;57.702;11.904;2024-03-25T06:24:17;0.70;;;0.70;;
12127;SDS011;6127;57.702;11.904;2024-03-25T06:26:43;0.60;;;0.60;;
12127;SDS011;6127;57.702;11.904;2024-03-25T06:29:09;0.60;;;0.60;;
12127;SDS011;6127;57.702;11.904;2024-03-25T06:31:35;0.60;;;0.60;;
12127;SDS011;6127;57.702;11.904;2024-03-25T06:34:33;0.60;;;0.60;;
12127;SDS011;6127;57.702;11.904;2024-03-25T06:36:59;0.63;;;0.63;;
12127;SDS011;6127;57.702;11.904;2024-03-25T06:39:25;0.70;;;0.70;;
12127;SDS011;6127;57.702;11.904;2024-03-25T06:41:51;0.60;;;0.60;;
12127;SDS011;6127;57.702;11.904;2024-03-25T06:44:17;0.60;;;0.60;;
12127;SDS011;6127;57.702;11.904;2024-03-25T06:46:43;0.60;;;0.60;;
12127;SDS011;6127;57.702;11.904;2024-03-25T06:49:09;0.60;;;0.60;;
12127;SDS011;6127;57.702;11.904;2024-03-25T06:51:35;0.60;;;0.60;;
12127;SDS011;6127;57.702;11.904;2024-03-25T07:10:36;0.60;;;0.60;;
12127;SDS011;6127;57.702;11.904;2024-03-25T07:13:10;0.60;;;0.60;;
12127;SDS011;6127;57.702;11.904;2024-03-25T07:15:36;0.70;;;0.70;;
12127;SDS011;6127;57.702;11.904;2024-03-25T07:18:02;0.60;;;0.60;;
12127;SDS011;6127;57.702;11.904;2024-03-25T07:20:28;0.50;;;0.50;;
12127;SDS011;6127;57.702;11.904;2024-03-25T07:22:54;0.60;;;0.60;;
12127;SDS011;6127;57.702;11.904;2024-03-25T07:25:20;0.60;;;0.60;;
12127;SDS011;6127;57.702;11.904;2024-03-25T07:27:46;0.60;;;0.60;;
12127;SDS011;6127;57.702;11.904;2024-03-25T07:30:13;0.60;;;0.60;;
12127;SDS011;6127;57.702;11.904;2024-03-25T07:32:39;0.50;;;0.50;;
12127;SDS011;6127;57.702;11.904;2024-03-25T07:35:05;0.60;;;0.60;;
12127;SDS011;6127;57.702;11.904;2024-03-25T07:37:32;0.60;;;0.60;;
12127;SDS011;6127;57.702;11.904;2024-03-25T07:39:58;0.60;;;0.60;;
12127;SDS011;6127;57.702;11.904;2024-03-25T07:42:24;0.60;;;0.60;;
12127;SDS011;6127;57.702;11.904;2024-03-25T07:44:50;0.60;;;0.60;;
12127;SDS011;6127;57.702;11.904;2024-03-25T07:47:17;0.50;;;0.50;;
12127;SDS011;6127;57.702;11.904;2024-03-25T07:49:43;0.60;;;0.60;;
12127;SDS011;6127;57.702;11.904;2024-03-25T07:52:09;0.60;;;0.60;;
12127;SDS011;6127;57.702;11.904;2024-03-25T07:54:35;0.60;;;0.60;;
12127;SDS011;6127;57.702;11.904;2024-03-25T07:57:02;0.60;;;0.60;;
12127;SDS011;6127;57.702;11.904;2024-03-25T07:59:28;0.60;;;0.60;;
12127;SDS011;6127;57.702;11.904;2024-03-25T08:01:54;0.60;;;0.60;;
12127;SDS011;6127;57.702;11.904;2024-03-25T08:04:20;0.50;;;0.50;;
12127;SDS011;6127;57.702;11.904;2024-03-25T08:06:46;0.50;;;0.50;;
12127;SDS011;6127;57.702;11.904;2024-03-25T08:09:12;0.60;;;0.60;;
12127;SDS011;6127;57.702;11.904;2024-03-25T08:11:40;0.50;;;0.50;;
12127;SDS011;6127;57.702;11.904;2024-03-25T08:14:08;0.50;;;0.50;;
12127;SDS011;6127;57.702;11.904;2024-03-25T08:16:34;0.60;;;0.60;;
12127;SDS011;6127;57.702;11.904;2024-03-25T08:19:00;0.60;;;0.60;;
12127;SDS011;6127;57.702;11.904;2024-03-25T08:21:26;0.60;;;0.60;;
12127;SDS011;6127;57.702;11.904;2024-03-25T08:26:34;0.50;;;0.50;;
12127;SDS011;6127;57.702;11.904;2024-03-25T08:29:00;0.40;;;0.40;;
12127;SDS011;6127;57.702;11.904;2024-03-25T08:31:26;0.50;;;0.50;;
12127;SDS011;6127;57.702;11.904;2024-03-25T08:33:52;0.57;;;0.57;;
12127;SDS011;6127;57.702;11.904;2024-03-25T08:36:18;0.60;;;0.60;;
12127;SDS011;6127;57.702;11.904;2024-03-25T08:38:44;0.55;;;0.55;;
12127;SDS011;6127;57.702;11.904;2024-03-25T08:41:10;0.60;;;0.60;;
12127;SDS011;6127;57.702;11.904;2024-03-25T08:43:36;0.60;;;0.60;;
12127;SDS011;6127;57.702;11.904;2024-03-25T08:46:02;0.60;;;0.60;;
12127;SDS011;6127;57.702;11.904;2024-03-25T08:48:28;0.50;;;0.50;;
12127;SDS011;6127;57.702;11.904;2024-03-25T08:50:54;0.40;;;0.40;;
12127;SDS011;6127;57.702;11.904;2024-03-25T08:53:20;0.50;;;0.50;;
12127;SDS011;6127;57.702;11.904;2024-03-25T08:55:47;0.50;;;0.50;;
12127;SDS011;6127;57.702;11.904;2024-03-25T08:58:14;0.50;;;0.50;;
12127;SDS011;6127;57.702;11.904;2024-03-25T09:00:40;0.45;;;0.45;;
12127;SDS011;6127;57.702;11.904;2024-03-25T09:03:06;0.50;;;0.50;;
12127;SDS011;6127;57.702;11.904;2024-03-25T09:05:33;0.50;;;0.50;;
12127;SDS011;6127;57.702;11.904;2024-03-25T09:07:59;0.52;;;0.52;;
12127;SDS011;6127;57.702;11.904;2024-03-25T09:10:25;0.55;;;0.55;;
12127;SDS011;6127;57.702;11.904;2024-03-25T09:13:10;0.50;;;0.50;;
12127;SDS011;6127;57.702;11.904;2024-03-25T09:15:36;0.50;;;0.50;;
12127;SDS011;6127;57.702;11.904;2024-03-25T09:18:02;0.50;;;0.50;;
12127;SDS011;6127;57.702;11.904;2024-03-25T09:20:28;0.60;;;0.60;;
12127;SDS011;6127;57.702;11.904;2024-03-25T09:22:54;0.50;;;0.50;;
12127;SDS011;6127;57.702;11.904;2024-03-25T09:25:20;0.50;;;0.50;;
12127;SDS011;6127;57.702;11.904;2024-03-25T09:27:47;0.60;;;0.60;;
12127;SDS011;6127;57.702;11.904;2024-03-25T09:30:13;0.60;;;0.60;;
12127;SDS011;6127;57.702;11.904;2024-03-25T09:32:40;0.50;;;0.50;;
12127;SDS011;6127;57.702;11.904;2024-03-25T09:35:06;0.60;;;0.60;;
12127;SDS011;6127;57.702;11.904;2024-03-25T09:37:32;0.60;;;0.60;;
12127;SDS011;6127;57.702;11.904;2024-03-25T09:39:59;0.60;;;0.60;;
12127;SDS011;6127;57.702;11.904;2024-03-25T09:42:35;0.50;;;0.50;;
12127;SDS011;6127;57.702;11.904;2024-03-25T09:45:02;0.50;;;0.50;;
12127;SDS011;6127;57.702;11.904;2024-03-25T09:47:28;0.50;;;0.50;;
12127;SDS011;6127;57.702;11.904;2024-03-25T09:49:54;0.40;;;0.40;;
12127;SDS011;6127;57.702;11.904;2024-03-25T09:52:20;0.50;;;0.50;;
12127;SDS011;6127;57.702;11.904;2024-03-25T09:54:46;0.50;;;0.50;;
12127;SDS011;6127;57.702;11.904;2024-03-25T09:57:12;0.40;;;0.40;;
12127;SDS011;6127;57.702;11.904;2024-03-25T09:59:39;0.40;;;0.40;;
12127;SDS011;6127;57.702;11.904;2024-03-25T10:02:05;0.40;;;0.40;;
12127;SDS011;6127;57.702;11.904;2024-03-25T10:04:32;0.40;;;0.40;;
12127;SDS011;6127;57.702;11.904;2024-03-25T10:06:58;0.40;;;0.40;;
12127;SDS011;6127;57.702;11.904;2024-03-25T10:12:00;0.50;;;0.50;;
12127;SDS011;6127;57.702;11.904;2024-03-25T10:14:26;0.50;;;0.50;;
12127;SDS011;6127;57.702;11.904;2024-03-25T10:16:52;0.50;;;0.50;;
12127;SDS011;6127;57.702;11.904;2024-03-25T10:19:18;0.60;;;0.60;;
12127;SDS011;6127;57.702;11.904;2024-03-25T10:21:44;0.60;;;0.60;;
12127;SDS011;6127;57.702;11.904;2024-03-25T10:24:10;0.60;;;0.60;;
12127;SDS011;6127;57.702;11.904;2024-03-25T10:26:36;0.60;;;0.60;;
12127;SDS011;6127;57.702;11.904;2024-03-25T10:29:06;0.60;;;0.60;;
12127;SDS011;6127;57.702;11.904;2024-03-25T10:31:32;0.60;;;0.60;;
12127;SDS011;6127;57.702;11.904;2024-03-25T10:33:58;0.60;;;0.60;;
12127;SDS011;6127;57.702;11.904;2024-03-25T10:36:24;0.60;;;0.60;;
12127;SDS011;6127;57.702;11.904;2024-03-25T10:38:54;0.50;;;0.50;;
12127;SDS011;6127;57.702;11.904;2024-03-25T10:41:21;0.50;;;0.50;;
12127;SDS011;6127;57.702;11.904;2024-03-25T10:43:47;0.40;;;0.40;;
12127;SDS011;6127;57.702;11.904;2024-03-25T10:46:20;0.30;;;0.30;;
12127;SDS011;6127;57.702;11.904;2024-03-25T10:48:54;0.40;;;0.40;;
12127;SDS011;6127;57.702;11.904;2024-03-25T10:51:21;0.40;;;0.40;;
12127;SDS011;6127;57.702;11.904;2024-03-25T10:53:48;0.40;;;0.40;;
12127;SDS011;6127;57.702;11.904;2024-03-25T10:56:15;0.45;;;0.45;;
12127;SDS011;6127;57.702;11.904;2024-03-25T10:58:41;0.50;;;0.50;;
12127;SDS011;6127;57.702;11.904;2024-03-25T11:01:08;0.50;;;0.50;;
12127;SDS011;6127;57.702;11.904;2024-03-25T11:03:35;0.60;;;0.60;;
12127;SDS011;6127;57.702;11.904;2024-03-25T11:06:02;0.60;;;0.60;;
12127;SDS011;6127;57.702;11.904;2024-03-25T11:08:31;0.60;;;0.60;;
12127;SDS011;6127;57.702;11.904;2024-03-25T11:10:57;0.50;;;0.50;;
12127;SDS011;6127;57.702;11.904;2024-03-25T11:13:23;0.60;;;0.60;;
12127;SDS011;6127;57.702;11.904;2024-03-25T11:15:49;0.55;;;0.55;;
12127;SDS011;6127;57.702;11.904;2024-03-25T11:18:17;0.60;;;0.60;;
12127;SDS011;6127;57.702;11.904;2024-03-25T11:20:43;0.60;;;0.60;;
12127;SDS011;6127;57.702;11.904;2024-03-25T11:23:10;0.60;;;0.60;;
12127;SDS011;6127;57.702;11.904;2024-03-25T11:25:36;0.60;;;0.60;;
12127;SDS011;6127;57.702;11.904;2024-03-25T11:28:02;0.60;;;0.60;;
12127;SDS011;6127;57.702;11.904;2024-03-25T11:30:29;0.60;;;0.60;;
12127;SDS011;6127;57.702;11.904;2024-03-25T11:32:56;0.60;;;0.60;;
12127;SDS011;6127;57.702;11.904;2024-03-25T11:35:22;0.50;;;0.50;;
12127;SDS011;6127;57.702;11.904;2024-03-25T11:37:48;0.50;;;0.50;;
12127;SDS011;6127;57.702;11.904;2024-03-25T11:40:16;0.40;;;0.40;;
12127;SDS011;6127;57.702;11.904;2024-03-25T11:42:42;0.40;;;0.40;;
12127;SDS011;6127;57.702;11.904;2024-03-25T11:45:15;0.40;;;0.40;;
12127;SDS011;6127;57.702;11.904;2024-03-25T11:47:42;0.40;;;0.40;;
12127;SDS011;6127;57.702;11.904;2024-03-25T11:50:12;0.45;;;0.45;;
12127;SDS011;6127;57.702;11.904;2024-03-25T11:52:38;0.50;;;0.50;;
12127;SDS011;6127;57.702;11.904;2024-03-25T11:55:04;0.50;;;0.50;;
12127;SDS011;6127;57.702;11.904;2024-03-25T11:57:30;0.50;;;0.50;;
12127;SDS011;6127;57.702;11.904;2024-03-25T11:59:58;0.50;;;0.50;;
12127;SDS011;6127;57.702;11.904;2024-03-25T12:02:24;0.50;;;0.50;;
12127;SDS011;6127;57.702;11.904;2024-03-25T12:04:50;0.50;;;0.50;;
12127;SDS011;6127;57.702;11.904;2024-03-25T12:07:16;0.50;;;0.50;;
12127;SDS011;6127;57.702;11.904;2024-03-25T12:09:43;0.50;;;0.50;;
12127;SDS011;6127;57.702;11.904;2024-03-25T12:12:27;0.50;;;0.50;;
12127;SDS011;6127;57.702;11.904;2024-03-25T12:14:54;0.50;;;0.50;;
12127;SDS011;6127;57.702;11.904;2024-03-25T12:17:21;0.50;;;0.50;;
12127;SDS011;6127;57.702;11.904;2024-03-25T12:20:06;0.50;;;0.50;;
12127;SDS011;6127;57.702;11.904;2024-03-25T12:22:33;0.60;;;0.60;;
12127;SDS011;6127;57.702;11.904;2024-03-25T12:25:00;0.60;;;0.60;;
12127;SDS011;6127;57.702;11.904;2024-03-25T12:27:27;0.50;;;0.50;;
12127;SDS011;6127;57.702;11.904;2024-03-25T12:29:57;0.50;;;0.50;;
12127;SDS011;6127;57.702;11.904;2024-03-25T12:32:30;0.50;;;0.50;;
12127;SDS011;6127;57.702;11.904;2024-03-25T12:34:57;0.50;;;0.50;;
12127;SDS011;6127;57.702;11.904;2024-03-25T12:37:23;0.40;;;0.40;;
12127;SDS011;6127;57.702;11.904;2024-03-25T12:39:49;0.40;;;0.40;;
12127;SDS011;6127;57.702;11.904;2024-03-25T12:42:15;0.50;;;0.50;;
12127;SDS011;6127;57.702;11.904;2024-03-25T12:44:41;0.50;;;0.50;;
12127;SDS011;6127;57.702;11.904;2024-03-25T12:47:07;0.50;;;0.50;;
12127;SDS011;6127;57.702;11.904;2024-03-25T12:49:33;0.55;;;0.55;;
12127;SDS011;6127;57.702;11.904;2024-03-25T12:51:59;0.50;;;0.50;;
12127;SDS011;6127;57.702;11.904;2024-03-25T12:56:59;0.60;;;0.60;;
12127;SDS011;6127;57.702;11.904;2024-03-25T12:59:24;0.50;;;0.50;;
12127;SDS011;6127;57.702;11.904;2024-03-25T13:01:51;0.60;;;0.60;;
12127;SDS011;6127;57.702;11.904;2024-03-25T13:04:17;0.60;;;0.60;;
12127;SDS011;6127;57.702;11.904;2024-03-25T13:06:43;0.60;;;0.60;;
12127;SDS011;6127;57.702;11.904;2024-03-25T13:09:09;0.60;;;0.60;;
12127;SDS011;6127;57.702;11.904;2024-03-25T13:11:35;0.60;;;0.60;;
12127;SDS011;6127;57.702;11.904;2024-03-25T13:14:02;0.60;;;0.60;;
12127;SDS011;6127;57.702;11.904;2024-03-25T13:16:31;0.60;;;0.60;;
12127;SDS011;6127;57.702;11.904;2024-03-25T13:18:57;0.60;;;0.60;;
12127;SDS011;6127;57.702;11.904;2024-03-25T13:21:23;0.60;;;0.60;;
12127;SDS011;6127;57.702;11.904;2024-03-25T13:23:50;0.60;;;0.60;;
12127;SDS011;6127;57.702;11.904;2024-03-25T13:26:16;0.60;;;0.60;;
12127;SDS011;6127;57.702;11.904;2024-03-25T13:28:42;0.60;;;0.60;;
12127;SDS011;6127;57.702;11.904;2024-03-25T13:31:08;0.60;;;0.60;;
12127;SDS011;6127;57.702;11.904;2024-03-25T13:33:34;0.60;;;0.60;;
12127;SDS011;6127;57.702;11.904;2024-03-25T13:36:01;0.60;;;0.60;;
12127;SDS011;6127;57.702;11.904;2024-03-25T13:38:27;0.60;;;0.60;;
12127;SDS011;6127;57.702;11.904;2024-03-25T13:43:29;0.60;;;0.60;;
12127;SDS011;6127;57.702;11.904;2024-03-25T13:45:55;0.60;;;0.60;;
12127;SDS011;6127;57.702;11.904;2024-03-25T13:48:21;0.60;;;0.60;;
12127;SDS011;6127;57.702;11.904;2024-03-25T13:50:47;0.60;;;0.60;;
12127;SDS011;6127;57.702;11.904;2024-03-25T13:53:13;0.60;;;0.60;;
12127;SDS011;6127;57.702;11.904;2024-03-25T14:11:14;0.60;;;0.60;;
12127;SDS011;6127;57.702;11.904;2024-03-25T14:13:40;0.60;;;0.60;;
12127;SDS011;6127;57.702;11.904;2024-03-25T14:16:06;0.60;;;0.60;;
12127;SDS011;6127;57.702;11.904;2024-03-25T14:18:32;0.60;;;0.60;;
12127;SDS011;6127;57.702;11.904;2024-03-25T14:20:58;0.60;;;0.60;;
12127;SDS011;6127;57.702;11.904;2024-03-25T14:23:24;0.60;;;0.60;;
12127;SDS011;6127;57.702;11.904;2024-03-25T14:25:50;0.60;;;0.60;;
12127;SDS011;6127;57.702;11.904;2024-03-25T14:28:16;0.60;;;0.60;;
12127;SDS011;6127;57.702;11.904;2024-03-25T14:30:42;0.50;;;0.50;;
12127;SDS011;6127;57.702;11.904;2024-03-25T14:33:08;0.60;;;0.60;;
12127;SDS011;6127;57.702;11.904;2024-03-25T14:35:34;0.60;;;0.60;;
12127;SDS011;6127;57.702;11.904;2024-03-25T14:38:00;0.60;;;0.60;;
12127;SDS011;6127;57.702;11.904;2024-03-25T14:43:02;0.60;;;0.60;;
12127;SDS011;6127;57.702;11.904;2024-03-25T14:45:28;0.60;;;0.60;;
12127;SDS011;6127;57.702;11.904;2024-03-25T14:47:54;0.60;;;0.60;;
12127;SDS011;6127;57.702;11.904;2024-03-25T14:50:20;0.52;;;0.52;;
12127;SDS011;6127;57.702;11.904;2024-03-25T14:52:46;0.50;;;0.50;;
12127;SDS011;6127;57.702;11.904;2024-03-25T14:55:12;0.60;;;0.60;;
12127;SDS011;6127;57.702;11.904;2024-03-25T14:57:38;0.60;;;0.60;;
12127;SDS011;6127;57.702;11.904;2024-03-25T15:00:04;0.60;;;0.60;;
12127;SDS011;6127;57.702;11.904;2024-03-25T15:02:31;0.60;;;0.60;;
12127;SDS011;6127;57.702;11.904;2024-03-25T15:04:57;0.60;;;0.60;;
12127;SDS011;6127;57.702;11.904;2024-03-25T15:07:23;0.60;;;0.60;;
12127;SDS011;6127;57.702;11.904;2024-03-25T15:09:48;0.60;;;0.60;;
12127;SDS011;6127;57.702;11.904;2024-03-25T15:12:14;0.60;;;0.60;;
12127;SDS011;6127;57.702;11.904;2024-03-25T15:14:40;0.52;;;0.52;;
12127;SDS011;6127;57.702;11.904;2024-03-25T15:17:06;0.50;;;0.50;;
12127;SDS011;6127;57.702;11.904;2024-03-25T15:19:32;0.60;;;0.60;;
12127;SDS011;6127;57.702;11.904;2024-03-25T15:21:58;0.50;;;0.50;;
12127;SDS011;6127;57.702;11.904;2024-03-25T15:24:24;0.50;;;0.50;;
12127;SDS011;6127;57.702;11.904;2024-03-25T15:26:50;0.50;;;0.50;;
12127;SDS011;6127;57.702;11.904;2024-03-25T15:29:16;0.60;;;0.60;;
12127;SDS011;6127;57.702;11.904;2024-03-25T15:31:42;0.60;;;0.60;;
12127;SDS011;6127;57.702;11.904;2024-03-25T15:34:08;0.50;;;0.50;;
12127;SDS011;6127;57.702;11.904;2024-03-25T15:36:34;0.60;;;0.60;;
12127;SDS011;6127;57.702;11.904;2024-03-25T15:39:00;0.50;;;0.50;;
12127;SDS011;6127;57.702;11.904;2024-03-25T15:41:26;0.60;;;0.60;;
12127;SDS011;6127;57.702;11.904;2024-03-25T15:43:52;0.60;;;0.60;;
12127;SDS011;6127;57.702;11.904;2024-03-25T15:46:18;0.60;;;0.60;;
12127;SDS011;6127;57.702;11.904;2024-03-25T15:48:44;0.60;;;0.60;;
12127;SDS011;6127;57.702;11.904;2024-03-25T15:51:11;0.60;;;0.60;;
12127;SDS011;6127;57.702;11.904;2024-03-25T15:53:37;0.60;;;0.60;;
12127;SDS011;6127;57.702;11.904;2024-03-25T15:56:03;0.60;;;0.60;;
12127;SDS011;6127;57.702;11.904;2024-03-25T15:58:30;0.60;;;0.60;;
12127;SDS011;6127;57.702;11.904;2024-03-25T16:00:56;0.60;;;0.60;;
12127;SDS011;6127;57.702;11.904;2024-03-25T16:03:22;0.60;;;0.60;;
12127;SDS011;6127;57.702;11.904;2024-03-25T16:05:48;0.57;;;0.57;;
12127;SDS011;6127;57.702;11.904;2024-03-25T16:08:14;0.57;;;0.57;;
12127;SDS011;6127;57.702;11.904;2024-03-25T16:13:16;0.60;;;0.60;;
12127;SDS011;6127;57.702;11.904;2024-03-25T16:15:42;0.60;;;0.60;;
12127;SDS011;6127;57.702;11.904;2024-03-25T16:18:08;0.60;;;0.60;;
12127;SDS011;6127;57.702;11.904;2024-03-25T16:20:34;0.50;;;0.50;;
12127;SDS011;6127;57.702;11.904;2024-03-25T16:23:00;0.50;;;0.50;;
12127;SDS011;6127;57.702;11.904;2024-03-25T16:25:26;0.50;;;0.50;;
12127;SDS011;6127;57.702;11.904;2024-03-25T16:27:52;0.50;;;0.50;;
12127;SDS011;6127;57.702;11.904;2024-03-25T16:30:19;0.50;;;0.50;;
12127;SDS011;6127;57.702;11.904;2024-03-25T16:32:45;0.50;;;0.50;;
12127;SDS011;6127;57.702;11.904;2024-03-25T16:35:11;0.47;;;0.47;;
12127;SDS011;6127;57.702;11.904;2024-03-25T16:37:37;0.50;;;0.50;;
12127;SDS011;6127;57.702;11.904;2024-03-25T16:40:03;0.50;;;0.50;;
12127;SDS011;6127;57.702;11.904;2024-03-25T16:55:30;0.50;;;0.50;;
12127;SDS011;6127;57.702;11.904;2024-03-25T16:57:56;0.50;;;0.50;;